Time;durP1;ratioP1;P1;durP2;ratioP2;P2;SDS_P1;SDS_P2;PMS_P1;PMS_P2;Temp;Humidity;BMP_temperature;BMP_pressure;BME280_temperature;BME280_humidity;BME280_pressure;Samples;Min_cycle;Max_cycle;Signal;HPM_P1;HPM_P2
2022/04/30 00:01:34;;;;;;;;;;;;;;;14.37;44.03;98460.53;4975452;28;19922;-57
2022/04/30 00:04:26;;;;;;;;;;;;;;;14.49;44.47;98468.94;4978757;28;19926;-57
2022/04/30 00:07:20;;;;;;;;;;;;;;;14.41;44.81;98456.03;4981112;28;20338;-56
2022/04/30 00:09:49;;;;;;;;;;;;;;;14.34;44.95;98458.47;4975131;28;20012;-56
2022/04/30 00:12:17;;;;;;;;;;;;;;;14.28;45.21;98462.50;4975743;28;19929;-56
2022/04/30 00:14:46;;;;;;;;;;;;;;;14.23;45.19;98457.19;4972795;28;20327;-56
2022/04/30 00:17:15;;;;;;;;;;;;;;;14.31;45.27;98456.38;4970951;28;20001;-56
2022/04/30 00:19:43;;;;;;;;;;;;;;;14.27;45.46;98450.75;4971436;28;19933;-57
2022/04/30 00:22:11;;;;;;;;;;;;;;;14.23;45.77;98449.78;4974844;28;19950;-54
2022/04/30 00:24:40;;;;;;;;;;;;;;;14.20;45.79;98447.69;4975170;28;19932;-54
2022/04/30 00:27:12;;;;;;;;;;;;;;;14.15;46.04;98448.66;4976052;28;19929;-54
2022/04/30 00:29:39;;;;;;;;;;;;;;;14.20;45.78;98444.97;4980324;28;19934;-54
2022/04/30 00:32:34;;;;;;;;;;;;;;;14.01;46.00;98445.28;4974596;28;19933;-56
2022/04/30 00:35:27;;;;;;;;;;;;;;;13.97;46.09;98436.13;4976202;28;20374;-57
2022/04/30 00:37:55;;;;;;;;;;;;;;;13.88;46.39;98443.50;4979195;28;19973;-54
2022/04/30 00:40:24;;;;;;;;;;;;;;;13.82;46.33;98434.66;4974915;28;19932;-54
2022/04/30 00:42:53;;;;;;;;;;;;;;;13.89;45.86;98440.44;4979760;28;20357;-54
2022/04/30 00:45:21;;;;;;;;;;;;;;;13.81;46.13;98443.97;4981903;28;20366;-55
2022/04/30 00:47:49;;;;;;;;;;;;;;;13.85;46.00;98444.16;4979218;28;20430;-55
2022/04/30 00:50:17;;;;;;;;;;;;;;;13.91;45.66;98431.94;4976952;28;20561;-55
2022/04/30 00:52:45;;;;;;;;;;;;;;;13.88;46.08;98438.84;4977945;28;19970;-55
2022/04/30 00:55:14;;;;;;;;;;;;;;;13.93;46.05;98432.41;4978925;28;20017;-55
2022/04/30 00:57:43;;;;;;;;;;;;;;;13.98;45.61;98437.72;4975714;28;19960;-55
2022/04/30 01:00:12;;;;;;;;;;;;;;;13.87;45.70;98439.16;4980114;28;19926;-55
2022/04/30 01:06:06;;;;;;;;;;;;;;;13.82;45.92;98436.59;4978455;28;20005;-55
2022/04/30 01:08:48;;;;;;;;;;;;;;;13.70;46.59;98439.94;4971228;28;19926;-55
2022/04/30 01:11:16;;;;;;;;;;;;;;;13.72;46.55;98436.88;4956102;28;19922;-54
2022/04/30 01:13:45;;;;;;;;;;;;;;;13.75;46.58;98434.34;4959095;28;19922;-55
2022/04/30 01:16:19;;;;;;;;;;;;;;;13.76;46.33;98432.41;4957328;28;19930;-54
2022/04/30 01:18:47;;;;;;;;;;;;;;;13.79;46.47;98437.22;4951122;28;19922;-54
2022/04/30 01:21:18;;;;;;;;;;;;;;;13.83;46.18;98435.47;4956776;28;19929;-54
2022/04/30 01:23:47;;;;;;;;;;;;;;;13.82;46.02;98428.41;4955624;28;19927;-54
2022/04/30 01:26:19;;;;;;;;;;;;;;;13.76;45.93;98425.03;4955321;28;19926;-55
2022/04/30 01:28:48;;;;;;;;;;;;;;;13.68;46.57;98428.53;4956959;28;20283;-54
2022/04/30 01:39:33;;;;;;;;;;;;;;;13.73;46.20;98413.91;4956037;28;19949;-54
2022/04/30 01:42:04;;;;;;;;;;;;;;;13.76;46.48;98407.84;4953503;28;20027;-53
2022/04/30 01:44:32;;;;;;;;;;;;;;;13.80;46.32;98406.06;4954023;28;19926;-54
2022/04/30 01:47:00;;;;;;;;;;;;;;;13.76;46.09;98408.63;4954616;28;20002;-54
2022/04/30 01:49:28;;;;;;;;;;;;;;;13.76;45.85;98407.84;4955799;28;20327;-55
2022/04/30 01:51:56;;;;;;;;;;;;;;;13.72;46.13;98406.84;4956495;28;19923;-54
2022/04/30 01:54:24;;;;;;;;;;;;;;;13.69;45.88;98404.75;4959554;28;19922;-54
2022/04/30 01:56:53;;;;;;;;;;;;;;;13.57;46.71;98406.19;4955784;28;20044;-55
2022/04/30 01:59:23;;;;;;;;;;;;;;;13.52;46.54;98403.59;4944499;28;19935;-55
2022/04/30 02:01:51;;;;;;;;;;;;;;;13.49;46.72;98403.47;4947731;28;19930;-55
2022/04/30 02:07:17;;;;;;;;;;;;;;;13.44;47.14;98389.97;4957579;28;20359;-55
2022/04/30 02:09:44;;;;;;;;;;;;;;;13.47;47.21;98392.03;4971756;28;19957;-54
2022/04/30 02:12:14;;;;;;;;;;;;;;;13.42;47.01;98390.25;4973035;28;20180;-55
2022/04/30 02:14:49;;;;;;;;;;;;;;;13.26;47.25;98391.81;4975216;28;19955;-55
2022/04/30 02:17:19;;;;;;;;;;;;;;;13.29;47.47;98381.09;4972072;28;19922;-55
2022/04/30 02:22:44;;;;;;;;;;;;;;;13.29;47.79;98385.75;4974261;28;19957;-54
2022/04/30 02:25:12;;;;;;;;;;;;;;;13.23;47.52;98379.63;4973337;28;20578;-55
2022/04/30 02:27:42;;;;;;;;;;;;;;;13.23;47.86;98373.38;4982468;28;20000;-55
2022/04/30 02:30:11;;;;;;;;;;;;;;;13.20;47.87;98374.75;4972001;28;19922;-55
2022/04/30 02:32:46;;;;;;;;;;;;;;;13.21;47.69;98364.66;4975215;28;20326;-55
2022/04/30 02:35:15;;;;;;;;;;;;;;;13.16;47.77;98373.81;4971592;28;19929;-55
2022/04/30 02:37:44;;;;;;;;;;;;;;;13.10;47.66;98372.31;4973297;28;20533;-55
2022/04/30 02:40:37;;;;;;;;;;;;;;;13.27;47.31;98368.91;4967231;28;19938;-55
2022/04/30 02:43:07;;;;;;;;;;;;;;;13.15;47.83;98361.28;4975305;28;20005;-54
2022/04/30 02:45:35;;;;;;;;;;;;;;;13.11;47.89;98354.88;4971827;28;19977;-55
2022/04/30 02:48:03;;;;;;;;;;;;;;;12.98;47.95;98355.78;4975065;28;19921;-55
2022/04/30 02:50:31;;;;;;;;;;;;;;;13.04;48.02;98365.41;4973635;28;20401;-55
2022/04/30 02:52:59;;;;;;;;;;;;;;;13.07;47.66;98360.13;4976513;28;19922;-55
2022/04/30 02:55:27;;;;;;;;;;;;;;;12.99;48.25;98355.44;4977140;28;19970;-55
2022/04/30 03:00:42;;;;;;;;;;;;;;;13.06;47.81;98346.81;4973892;28;19926;-54
2022/04/30 03:03:40;;;;;;;;;;;;;;;13.07;47.87;98346.50;4976314;28;19926;-54
2022/04/30 03:06:16;;;;;;;;;;;;;;;13.08;47.87;98339.91;4970165;28;19922;-54
2022/04/30 03:08:45;;;;;;;;;;;;;;;13.04;47.97;98344.38;4973620;28;20067;-55
2022/04/30 03:11:13;;;;;;;;;;;;;;;12.94;48.01;98347.41;4976793;28;20078;-55
2022/04/30 03:13:41;;;;;;;;;;;;;;;13.00;48.11;98342.63;4980203;28;20329;-56
2022/04/30 03:21:49;;;;;;;;;;;;;;;12.76;48.70;98332.91;4980445;28;19957;-57
2022/04/30 03:24:18;;;;;;;;;;;;;;;12.72;48.85;98337.38;4977678;28;19922;-55
2022/04/30 03:26:46;;;;;;;;;;;;;;;12.76;48.89;98337.56;4977808;28;19926;-56
2022/04/30 03:29:14;;;;;;;;;;;;;;;12.82;48.69;98333.56;4975688;28;20445;-54
2022/04/30 03:31:43;;;;;;;;;;;;;;;12.75;48.91;98325.06;4974718;28;20086;-55
2022/04/30 03:34:12;;;;;;;;;;;;;;;12.68;49.20;98335.63;4977085;28;19922;-55
2022/04/30 03:36:40;;;;;;;;;;;;;;;12.70;48.81;98333.38;4979921;28;19941;-55
2022/04/30 03:39:09;;;;;;;;;;;;;;;12.68;48.89;98327.44;4976575;28;20433;-55
2022/04/30 03:41:37;;;;;;;;;;;;;;;12.75;48.60;98336.78;4982567;28;19965;-55
2022/04/30 03:44:07;;;;;;;;;;;;;;;12.63;48.88;98328.38;4978147;28;19992;-55
2022/04/30 03:46:35;;;;;;;;;;;;;;;12.56;49.55;98333.47;4977973;28;19922;-55
2022/04/30 03:49:06;;;;;;;;;;;;;;;12.68;48.72;98341.88;4978151;28;22702;-55
2022/04/30 03:51:34;;;;;;;;;;;;;;;12.57;49.08;98335.09;4981151;28;19980;-55
2022/04/30 03:54:01;;;;;;;;;;;;;;;12.54;49.36;98333.78;4978876;28;19961;-55
2022/04/30 03:59:21;;;;;;;;;;;;;;;12.59;49.32;98333.66;4978357;28;19929;-55
2022/04/30 04:01:49;;;;;;;;;;;;;;;12.61;49.22;98327.06;4975909;28;19947;-55
2022/04/30 04:10:09;;;;;;;;;;;;;;;12.64;49.01;98308.19;4973050;28;19953;-55
2022/04/30 04:12:37;;;;;;;;;;;;;;;12.65;48.99;98314.44;4980954;28;20483;-54
2022/04/30 04:17:51;;;;;;;;;;;;;;;12.62;48.71;98309.59;4976203;28;20298;-55
2022/04/30 04:20:24;;;;;;;;;;;;;;;12.55;49.28;98312.78;4977428;28;20398;-55
2022/04/30 04:22:54;;;;;;;;;;;;;;;12.58;49.10;98310.25;4977397;28;20125;-54
2022/04/30 04:28:08;;;;;;;;;;;;;;;12.84;48.53;98312.28;4977382;28;19922;-55
2022/04/30 04:30:35;;;;;;;;;;;;;;;12.71;48.73;98321.34;4978908;28;20302;-55
2022/04/30 04:33:03;;;;;;;;;;;;;;;12.76;48.88;98322.00;4972780;28;19922;-55
2022/04/30 04:35:32;;;;;;;;;;;;;;;12.74;48.90;98315.28;4978984;28;19925;-56
2022/04/30 04:38:03;;;;;;;;;;;;;;;12.79;48.74;98315.94;4974403;28;20040;-55
2022/04/30 04:40:31;;;;;;;;;;;;;;;12.77;48.83;98317.34;4976536;28;19922;-55
2022/04/30 04:42:59;;;;;;;;;;;;;;;12.82;48.51;98325.41;4976097;28;20286;-58
2022/04/30 04:45:28;;;;;;;;;;;;;;;12.85;48.30;98324.78;4975592;28;19925;-55
2022/04/30 04:47:56;;;;;;;;;;;;;;;12.76;48.70;98318.47;4977604;28;19928;-55
2022/04/30 04:50:24;;;;;;;;;;;;;;;12.79;48.84;98317.88;4975374;28;19934;-55
2022/04/30 04:52:57;;;;;;;;;;;;;;;12.70;49.19;98317.81;4981188;28;20297;-54
2022/04/30 04:55:25;;;;;;;;;;;;;;;12.77;48.90;98318.16;4974698;28;19926;-55
2022/04/30 04:57:53;;;;;;;;;;;;;;;12.67;49.06;98315.72;4979700;28;20417;-54
2022/04/30 05:00:22;;;;;;;;;;;;;;;12.74;49.16;98323.47;4976349;28;20300;-56
2022/04/30 05:06:06;;;;;;;;;;;;;;;12.88;48.76;98324.13;4975718;28;19926;-56
2022/04/30 05:08:40;;;;;;;;;;;;;;;12.89;48.35;98331.22;4978934;28;19958;-55
2022/04/30 05:11:11;;;;;;;;;;;;;;;12.92;48.56;98332.50;4978449;28;20012;-55
2022/04/30 05:13:39;;;;;;;;;;;;;;;12.91;48.71;98328.16;4973537;28;19922;-55
2022/04/30 05:16:14;;;;;;;;;;;;;;;12.90;48.70;98329.28;4971780;28;19922;-55
2022/04/30 05:18:42;;;;;;;;;;;;;;;12.84;48.94;98334.88;4973810;28;20359;-55
2022/04/30 05:21:13;;;;;;;;;;;;;;;12.88;48.89;98339.69;4974533;28;20021;-55
2022/04/30 05:23:42;;;;;;;;;;;;;;;12.88;48.80;98337.75;4972204;28;19926;-55
2022/04/30 05:26:13;;;;;;;;;;;;;;;12.98;48.35;98342.13;4977064;28;20263;-56
2022/04/30 05:28:40;;;;;;;;;;;;;;;12.99;48.50;98344.53;4974335;28;19922;-56
2022/04/30 05:31:11;;;;;;;;;;;;;;;13.06;48.67;98342.16;4975102;28;19923;-56
2022/04/30 05:33:39;;;;;;;;;;;;;;;13.06;48.71;98344.91;4978265;28;19921;-56
2022/04/30 05:36:07;;;;;;;;;;;;;;;13.15;48.48;98349.56;4973946;28;19922;-56
2022/04/30 05:38:43;;;;;;;;;;;;;;;13.15;48.26;98347.63;4972363;28;20279;-56
2022/04/30 05:41:14;;;;;;;;;;;;;;;13.11;48.32;98347.47;4974059;28;20326;-56
2022/04/30 05:43:42;;;;;;;;;;;;;;;13.23;48.15;98352.34;4975673;28;20669;-56
2022/04/30 05:46:13;;;;;;;;;;;;;;;13.44;47.61;98358.00;4975996;28;20298;-56
2022/04/30 05:48:42;;;;;;;;;;;;;;;13.42;48.21;98362.16;4978682;28;20052;-56
2022/04/30 05:51:15;;;;;;;;;;;;;;;13.41;47.66;98357.84;4976653;28;20366;-56
2022/04/30 05:53:45;;;;;;;;;;;;;;;13.44;48.24;98368.94;4973857;28;19929;-56
2022/04/30 05:56:13;;;;;;;;;;;;;;;13.33;48.11;98370.34;4973303;28;19926;-56
2022/04/30 05:58:42;;;;;;;;;;;;;;;13.49;47.10;98371.50;4972505;28;19922;-56
2022/04/30 06:01:13;;;;;;;;;;;;;;;13.75;47.13;98373.47;4971975;28;19922;-56
2022/04/30 06:03:41;;;;;;;;;;;;;;;13.71;47.44;98386.13;4974516;28;20016;-56
2022/04/30 06:06:15;;;;;;;;;;;;;;;13.87;46.80;98387.28;4971869;28;19933;-56
2022/04/30 06:08:43;;;;;;;;;;;;;;;13.90;46.25;98389.34;4971191;28;20177;-58
2022/04/30 06:11:13;;;;;;;;;;;;;;;13.93;46.07;98394.19;4967242;28;20001;-56
2022/04/30 06:13:41;;;;;;;;;;;;;;;14.17;45.66;98399.16;4972710;28;19929;-58
2022/04/30 06:16:34;;;;;;;;;;;;;;;14.22;45.40;98398.16;4973734;28;19922;-59
2022/04/30 06:19:02;;;;;;;;;;;;;;;14.24;45.17;98396.75;4974976;28;20102;-59
2022/04/30 06:21:39;;;;;;;;;;;;;;;14.11;45.09;98404.00;4975937;28;19922;-58
2022/04/30 06:24:07;;;;;;;;;;;;;;;14.28;45.38;98396.91;4971372;28;19937;-56
2022/04/30 06:26:36;;;;;;;;;;;;;;;14.39;44.44;98398.97;4971659;28;19929;-59
2022/04/30 06:29:04;;;;;;;;;;;;;;;14.49;44.32;98394.31;4972289;28;19934;-59
2022/04/30 06:31:32;;;;;;;;;;;;;;;14.58;43.91;98401.38;4973870;28;19954;-57
2022/04/30 06:33:59;;;;;;;;;;;;;;;14.53;44.41;98401.53;4973720;28;19929;-59
2022/04/30 06:36:28;;;;;;;;;;;;;;;14.65;44.34;98404.41;4978360;28;19956;-59
2022/04/30 06:38:55;;;;;;;;;;;;;;;14.76;44.56;98401.34;4973417;28;19938;-56
2022/04/30 06:41:23;;;;;;;;;;;;;;;15.01;44.04;98402.34;4972313;28;19926;-55
2022/04/30 06:43:53;;;;;;;;;;;;;;;14.96;44.50;98410.75;4981962;28;20277;-59
2022/04/30 06:46:20;;;;;;;;;;;;;;;15.05;44.34;98406.84;4979787;28;20374;-59
2022/04/30 06:48:48;;;;;;;;;;;;;;;15.14;43.88;98406.81;4978743;28;19932;-59
2022/04/30 06:51:17;;;;;;;;;;;;;;;15.26;43.64;98414.31;4975103;28;19922;-59
2022/04/30 06:59:17;;;;;;;;;;;;;;;15.34;42.75;98418.94;4975532;28;20019;-58
2022/04/30 07:01:51;;;;;;;;;;;;;;;15.20;43.53;98409.03;4975471;28;19933;-59
2022/04/30 07:04:46;;;;;;;;;;;;;;;15.13;43.36;98416.97;4978798;28;19921;-59
2022/04/30 07:07:19;;;;;;;;;;;;;;;15.15;43.39;98417.44;4982831;28;19964;-59
2022/04/30 07:09:47;;;;;;;;;;;;;;;15.19;43.39;98415.66;4980827;28;19926;-59
2022/04/30 07:12:17;;;;;;;;;;;;;;;15.30;43.04;98418.00;4974417;28;19933;-57
2022/04/30 07:14:48;;;;;;;;;;;;;;;15.28;43.05;98417.53;4977812;28;19922;-59
2022/04/30 07:17:17;;;;;;;;;;;;;;;15.42;42.26;98407.94;4975450;28;19933;-59
2022/04/30 07:19:44;;;;;;;;;;;;;;;15.29;42.79;98410.94;4980402;28;19964;-59
2022/04/30 07:22:13;;;;;;;;;;;;;;;15.32;43.29;98419.28;4977233;28;20431;-59
2022/04/30 07:25:06;;;;;;;;;;;;;;;15.36;42.37;98409.28;4978017;28;20140;-59
2022/04/30 07:27:34;;;;;;;;;;;;;;;15.36;42.42;98409.28;4977806;28;19930;-57
2022/04/30 07:30:03;;;;;;;;;;;;;;;15.61;41.63;98407.53;4976363;28;19985;-58
2022/04/30 07:32:34;;;;;;;;;;;;;;;15.78;41.15;98406.63;4976120;28;19926;-59
2022/04/30 07:35:05;;;;;;;;;;;;;;;15.70;41.71;98408.28;4973567;28;19929;-58
2022/04/30 07:37:33;;;;;;;;;;;;;;;15.83;41.91;98411.13;4976235;28;19922;-56
2022/04/30 07:40:02;;;;;;;;;;;;;;;16.24;40.50;98404.81;4975446;28;19968;-52
2022/04/30 07:42:30;;;;;;;;;;;;;;;16.10;40.35;98402.34;4974995;28;19933;-59
2022/04/30 07:44:59;;;;;;;;;;;;;;;16.04;40.85;98409.19;4977195;28;19925;-57
2022/04/30 07:47:29;;;;;;;;;;;;;;;16.13;40.30;98406.34;4975008;28;19922;-57
2022/04/30 07:50:02;;;;;;;;;;;;;;;16.34;39.78;98409.06;4976953;28;20487;-59
2022/04/30 07:52:30;;;;;;;;;;;;;;;16.32;39.99;98408.63;4972083;28;19938;-59
2022/04/30 07:54:58;;;;;;;;;;;;;;;16.46;39.68;98411.88;4979082;28;19926;-57
2022/04/30 07:57:28;;;;;;;;;;;;;;;16.59;40.06;98421.75;4972191;28;19921;-58
2022/04/30 07:59:55;;;;;;;;;;;;;;;16.77;39.86;98422.38;4975895;28;20413;-57
2022/04/30 08:02:23;;;;;;;;;;;;;;;16.94;38.38;98415.91;4975559;28;20075;-53
2022/04/30 08:04:53;;;;;;;;;;;;;;;16.94;38.63;98413.19;4976585;28;19953;-58
2022/04/30 08:07:26;;;;;;;;;;;;;;;17.19;37.18;98408.50;4974984;28;19936;-58
2022/04/30 08:09:54;;;;;;;;;;;;;;;17.13;37.54;98407.13;4977672;28;20052;-57
2022/04/30 08:12:23;;;;;;;;;;;;;;;16.95;37.34;98409.28;4969861;28;19937;-51
2022/04/30 08:14:51;;;;;;;;;;;;;;;17.06;37.25;98409.63;4973456;28;19922;-56
2022/04/30 08:20:12;;;;;;;;;;;;;;;17.38;36.53;98403.25;4972088;28;20012;-57
2022/04/30 08:22:40;;;;;;;;;;;;;;;17.55;36.48;98402.19;4976042;28;19922;-57
2022/04/30 08:25:08;;;;;;;;;;;;;;;17.56;36.39;98398.28;4974816;28;19976;-56
2022/04/30 08:27:36;;;;;;;;;;;;;;;17.65;36.10;98396.22;4973055;28;20383;-57
2022/04/30 08:30:04;;;;;;;;;;;;;;;17.69;36.47;98396.34;4974217;28;19922;-57
2022/04/30 08:32:32;;;;;;;;;;;;;;;17.67;35.27;98399.41;4971962;28;19934;-56
2022/04/30 08:35:01;;;;;;;;;;;;;;;17.62;35.98;98399.66;4972901;28;20337;-57
2022/04/30 08:37:34;;;;;;;;;;;;;;;17.38;36.33;98403.25;4976031;28;19922;-55
2022/04/30 08:40:02;;;;;;;;;;;;;;;17.53;35.96;98399.78;4972732;28;19922;-56
2022/04/30 08:42:33;;;;;;;;;;;;;;;17.51;35.97;98401.28;4969405;28;19929;-57
2022/04/30 08:45:01;;;;;;;;;;;;;;;17.51;37.31;98409.50;4970523;28;19922;-57
2022/04/30 08:47:30;;;;;;;;;;;;;;;17.68;36.06;98400.22;4971478;28;20441;-57
2022/04/30 08:50:03;;;;;;;;;;;;;;;17.84;35.71;98394.84;4976500;28;19969;-57
2022/04/30 08:52:31;;;;;;;;;;;;;;;17.83;35.29;98394.03;4978913;28;19922;-58
2022/04/30 08:55:01;;;;;;;;;;;;;;;17.95;35.27;98393.19;4960921;28;19921;-55
2022/04/30 08:57:29;;;;;;;;;;;;;;;17.89;34.93;98389.88;4971514;28;19980;-57
2022/04/30 09:00:00;;;;;;;;;;;;;;;17.86;34.95;98395.31;4972262;28;19934;-56
2022/04/30 09:02:29;;;;;;;;;;;;;;;17.79;36.45;98390.41;4973038;28;20227;-56
2022/04/30 09:05:25;;;;;;;;;;;;;;;17.85;35.14;98389.00;4975073;28;20027;-56
2022/04/30 09:07:53;;;;;;;;;;;;;;;17.97;34.91;98391.72;4973455;28;20005;-50
2022/04/30 09:10:25;;;;;;;;;;;;;;;18.05;35.08;98388.00;4972824;28;19981;-56
2022/04/30 09:12:53;;;;;;;;;;;;;;;18.14;34.15;98385.13;4976066;28;19997;-56
2022/04/30 09:15:26;;;;;;;;;;;;;;;18.17;35.86;98389.94;4971712;28;19989;-55
2022/04/30 09:17:57;;;;;;;;;;;;;;;18.08;34.48;98386.53;4971950;28;19926;-57
2022/04/30 09:20:25;;;;;;;;;;;;;;;18.20;34.59;98382.94;4975047;28;20017;-57
2022/04/30 09:22:53;;;;;;;;;;;;;;;18.29;35.07;98395.38;4972910;28;19926;-50
2022/04/30 09:25:21;;;;;;;;;;;;;;;18.35;34.98;98384.13;4973428;28;19926;-55
2022/04/30 09:28:03;;;;;;;;;;;;;;;18.31;34.45;98378.53;4973740;28;19964;-51
2022/04/30 09:30:32;;;;;;;;;;;;;;;18.21;34.54;98382.56;4976214;28;19953;-58
2022/04/30 09:33:02;;;;;;;;;;;;;;;18.41;33.85;98385.47;4971431;28;19933;-57
2022/04/30 09:38:15;;;;;;;;;;;;;;;18.29;33.74;98381.63;4972122;28;19934;-60
2022/04/30 09:40:52;;;;;;;;;;;;;;;18.41;35.04;98377.22;4971427;28;19933;-57
2022/04/30 09:43:21;;;;;;;;;;;;;;;18.13;36.48;98378.03;4970672;28;19969;-57
2022/04/30 09:45:49;;;;;;;;;;;;;;;18.26;34.06;98370.53;4980212;28;19934;-53
2022/04/30 09:54:16;;;;;;;;;;;;;;;18.64;33.67;98361.72;4974588;28;19978;-56
2022/04/30 09:56:44;;;;;;;;;;;;;;;18.64;34.27;98363.66;4976482;28;19930;-56
2022/04/30 09:59:14;;;;;;;;;;;;;;;18.69;35.27;98355.19;4976370;28;20151;-56
2022/04/30 10:01:42;;;;;;;;;;;;;;;18.94;34.46;98361.34;4973989;28;19921;-56
2022/04/30 10:04:11;;;;;;;;;;;;;;;18.82;34.76;98354.75;4972453;28;19929;-56
2022/04/30 10:06:41;;;;;;;;;;;;;;;18.86;34.60;98349.34;4974659;28;19960;-57
2022/04/30 10:09:16;;;;;;;;;;;;;;;19.07;33.02;98352.63;4973517;28;19926;-56
2022/04/30 10:11:47;;;;;;;;;;;;;;;19.16;33.23;98352.44;4973188;28;19936;-56
2022/04/30 10:17:20;;;;;;;;;;;;;;;19.31;33.00;98356.31;4976318;28;19950;-55
2022/04/30 10:19:58;;;;;;;;;;;;;;;19.08;33.31;98356.19;4975195;28;19926;-56
2022/04/30 10:22:27;;;;;;;;;;;;;;;18.92;33.04;98358.16;4976388;28;19933;-54
2022/04/30 10:24:56;;;;;;;;;;;;;;;18.78;33.29;98353.06;4975469;28;19961;-56
2022/04/30 10:27:23;;;;;;;;;;;;;;;18.97;33.87;98344.13;4973044;28;19937;-56
2022/04/30 10:29:53;;;;;;;;;;;;;;;19.01;33.38;98340.25;4976682;28;20386;-56
2022/04/30 10:32:27;;;;;;;;;;;;;;;19.10;33.51;98342.84;4978968;28;19985;-56
2022/04/30 10:34:56;;;;;;;;;;;;;;;19.04;33.74;98345.06;4976174;28;20016;-55
2022/04/30 10:37:27;;;;;;;;;;;;;;;18.99;33.39;98347.31;4974532;28;19958;-55
2022/04/30 10:39:58;;;;;;;;;;;;;;;18.99;33.51;98339.03;4977110;28;20295;-52
2022/04/30 10:42:30;;;;;;;;;;;;;;;18.93;33.51;98349.53;4980474;28;20013;-56
2022/04/30 10:44:59;;;;;;;;;;;;;;;18.93;34.48;98345.97;4977173;28;20326;-54
2022/04/30 10:47:27;;;;;;;;;;;;;;;19.00;34.00;98338.69;4978474;28;19926;-54
2022/04/30 10:50:20;;;;;;;;;;;;;;;18.95;33.42;98344.44;4974109;28;19965;-56
2022/04/30 10:53:13;;;;;;;;;;;;;;;18.87;33.36;98345.44;4976193;28;20447;-55
2022/04/30 10:55:41;;;;;;;;;;;;;;;18.82;33.28;98343.75;4979881;28;19980;-57
2022/04/30 10:58:09;;;;;;;;;;;;;;;18.88;33.19;98349.78;4974656;28;20298;-49
2022/04/30 11:00:38;;;;;;;;;;;;;;;18.84;33.93;98340.63;4982526;28;20395;-56
2022/04/30 11:03:10;;;;;;;;;;;;;;;18.68;33.69;98331.56;4973329;28;19933;-58
2022/04/30 11:06:02;;;;;;;;;;;;;;;18.82;35.36;98332.75;4981463;28;19937;-58
2022/04/30 11:11:30;;;;;;;;;;;;;;;19.39;33.05;98327.81;4978663;28;19973;-57
2022/04/30 11:14:05;;;;;;;;;;;;;;;19.39;34.41;98322.28;4977496;28;19930;-58
2022/04/30 11:16:36;;;;;;;;;;;;;;;19.35;32.95;98321.41;4975292;28;20382;-57
2022/04/30 11:19:08;;;;;;;;;;;;;;;19.38;33.32;98315.16;4973393;28;19933;-58
2022/04/30 11:21:36;;;;;;;;;;;;;;;19.32;35.10;98314.63;4976172;28;19936;-58
2022/04/30 11:24:04;;;;;;;;;;;;;;;19.31;33.93;98310.28;4974721;28;19981;-58
2022/04/30 11:26:37;;;;;;;;;;;;;;;19.45;34.56;98314.53;4980061;28;20401;-58
2022/04/30 11:29:09;;;;;;;;;;;;;;;19.51;33.43;98308.38;4981214;28;19945;-58
2022/04/30 11:31:39;;;;;;;;;;;;;;;19.63;33.58;98308.28;4972896;28;19930;-58
2022/04/30 11:34:10;;;;;;;;;;;;;;;19.48;33.41;98311.84;4978172;28;20350;-57
2022/04/30 11:36:41;;;;;;;;;;;;;;;19.38;33.60;98310.44;4975287;28;20361;-57
2022/04/30 11:39:10;;;;;;;;;;;;;;;19.42;33.56;98310.53;4976756;28;20008;-58
2022/04/30 11:41:38;;;;;;;;;;;;;;;19.18;33.58;98313.53;4977553;28;19953;-58
2022/04/30 11:44:06;;;;;;;;;;;;;;;19.23;34.21;98305.78;4981147;28;19982;-58
2022/04/30 11:46:36;;;;;;;;;;;;;;;19.03;34.16;98304.13;4975905;28;20437;-55
2022/04/30 11:49:09;;;;;;;;;;;;;;;19.17;35.16;98304.44;4981326;28;19930;-57
2022/04/30 11:51:57;;;;;;;;;;;;;;;19.05;34.74;98301.81;4974018;28;19958;-57
2022/04/30 11:54:26;;;;;;;;;;;;;;;19.04;34.63;98305.72;4977315;28;19930;-59
2022/04/30 11:56:53;;;;;;;;;;;;;;;18.60;34.93;98303.06;4982714;28;19933;-58
2022/04/30 11:59:34;;;;;;;;;;;;;;;18.55;35.21;98297.81;4972291;28;21176;-55
2022/04/30 12:02:26;;;;;;;;;;;;;;;18.59;34.72;98301.47;4977303;28;20405;-51
2022/04/30 12:05:20;;;;;;;;;;;;;;;18.57;34.65;98301.00;4974256;28;19930;-56
2022/04/30 12:07:51;;;;;;;;;;;;;;;18.61;35.06;98307.41;4975513;28;20337;-54
2022/04/30 12:10:23;;;;;;;;;;;;;;;18.65;34.71;98305.56;4978793;28;19925;-57
2022/04/30 12:12:52;;;;;;;;;;;;;;;18.62;34.48;98295.25;4977077;28;19927;-56
2022/04/30 12:15:44;;;;;;;;;;;;;;;18.64;34.80;98306.69;4977481;28;19942;-56
2022/04/30 12:24:44;;;;;;;;;;;;;;;18.44;37.96;98310.50;4978872;28;20004;-57
2022/04/30 12:27:19;;;;;;;;;;;;;;;18.33;42.46;98322.03;4978691;28;19934;-57
2022/04/30 12:29:47;;;;;;;;;;;;;;;18.01;43.67;98321.16;4976574;28;19930;-57
2022/04/30 12:32:19;;;;;;;;;;;;;;;17.65;45.74;98334.97;4968519;28;19981;-57
2022/04/30 12:34:52;;;;;;;;;;;;;;;17.43;48.35;98333.53;4971389;28;20048;-57
2022/04/30 12:37:29;;;;;;;;;;;;;;;17.28;47.35;98343.28;4973017;28;20371;-56
2022/04/30 12:39:59;;;;;;;;;;;;;;;17.03;47.54;98345.22;4973775;28;19930;-57
2022/04/30 12:42:27;;;;;;;;;;;;;;;16.74;48.67;98333.31;4977371;28;19941;-57
2022/04/30 12:44:55;;;;;;;;;;;;;;;16.60;49.81;98332.00;4971730;28;20391;-56
2022/04/30 12:47:47;;;;;;;;;;;;;;;16.56;48.99;98328.34;4975631;28;20039;-48
2022/04/30 12:50:16;;;;;;;;;;;;;;;16.47;45.66;98325.72;4972047;28;19934;-58
2022/04/30 12:53:09;;;;;;;;;;;;;;;16.12;48.50;98317.84;4970289;28;20358;-60
2022/04/30 12:55:39;;;;;;;;;;;;;;;15.85;48.09;98304.72;4976250;28;19938;-60
2022/04/30 12:58:07;;;;;;;;;;;;;;;15.95;47.72;98309.78;4974738;28;19934;-60
2022/04/30 13:00:35;;;;;;;;;;;;;;;15.94;49.17;98311.72;4979328;28;19972;-59
2022/04/30 13:03:28;;;;;;;;;;;;;;;15.99;48.31;98316.22;4972715;28;19969;-53
2022/04/30 13:05:56;;;;;;;;;;;;;;;16.06;49.89;98324.69;4978020;28;19966;-58
2022/04/30 13:14:14;;;;;;;;;;;;;;;16.39;53.53;98357.56;4976825;28;20381;-57
2022/04/30 13:16:43;;;;;;;;;;;;;;;16.29;54.52;98368.16;4974341;28;19977;-57
2022/04/30 13:19:11;;;;;;;;;;;;;;;16.16;55.87;98362.63;4978818;28;19932;-58
2022/04/30 13:21:40;;;;;;;;;;;;;;;16.15;55.97;98366.53;4976240;28;19937;-59
2022/04/30 13:24:08;;;;;;;;;;;;;;;16.11;55.19;98364.78;4975760;28;19933;-57
2022/04/30 13:26:37;;;;;;;;;;;;;;;16.24;55.17;98372.72;4976116;28;19954;-57
2022/04/30 13:29:05;;;;;;;;;;;;;;;16.18;54.51;98371.31;4974116;28;20286;-56
2022/04/30 13:31:42;;;;;;;;;;;;;;;16.20;55.87;98374.53;4977412;28;19938;-56
2022/04/30 13:34:10;;;;;;;;;;;;;;;16.12;54.76;98369.91;4977737;28;19980;-57
2022/04/30 13:36:40;;;;;;;;;;;;;;;16.19;54.58;98364.72;4973584;28;19926;-57
2022/04/30 13:39:08;;;;;;;;;;;;;;;16.10;54.27;98353.03;4976060;28;19982;-53
2022/04/30 13:41:37;;;;;;;;;;;;;;;16.09;55.95;98343.19;4977180;28;19925;-57
2022/04/30 13:44:07;;;;;;;;;;;;;;;16.04;54.87;98337.94;4974394;28;19933;-56
2022/04/30 13:46:35;;;;;;;;;;;;;;;16.00;54.88;98325.22;4979212;28;20355;-58
2022/04/30 13:49:05;;;;;;;;;;;;;;;15.78;55.87;98331.88;4972889;28;19961;-58
2022/04/30 13:51:34;;;;;;;;;;;;;;;15.80;54.07;98313.94;4975927;28;19930;-53
2022/04/30 13:54:01;;;;;;;;;;;;;;;15.73;51.62;98302.75;4974808;28;19934;-56
2022/04/30 13:56:29;;;;;;;;;;;;;;;15.69;52.59;98302.59;4977469;28;19926;-58
2022/04/30 13:59:00;;;;;;;;;;;;;;;15.79;49.76;98292.38;4977761;28;19930;-58
2022/04/30 14:01:28;;;;;;;;;;;;;;;15.58;49.17;98287.69;4975675;28;19957;-56
2022/04/30 14:03:56;;;;;;;;;;;;;;;15.54;51.15;98286.75;4974594;28;19933;-56
2022/04/30 14:06:34;;;;;;;;;;;;;;;15.42;53.08;98287.47;4973432;28;19930;-58
2022/04/30 14:09:02;;;;;;;;;;;;;;;15.31;53.27;98280.00;4979992;28;19933;-58
2022/04/30 14:11:30;;;;;;;;;;;;;;;15.19;54.16;98273.31;4980722;28;19934;-58
2022/04/30 14:16:44;;;;;;;;;;;;;;;15.16;54.65;98271.25;4975638;28;20433;-57
2022/04/30 14:19:12;;;;;;;;;;;;;;;15.24;54.40;98268.78;4971650;28;20174;-58
2022/04/30 14:21:40;;;;;;;;;;;;;;;15.35;53.67;98267.25;4977732;28;19969;-58
2022/04/30 14:24:09;;;;;;;;;;;;;;;15.30;53.09;98267.47;4978055;28;19944;-58
2022/04/30 14:26:53;;;;;;;;;;;;;;;15.45;53.15;98269.59;4970732;28;19937;-55
2022/04/30 14:29:22;;;;;;;;;;;;;;;15.40;52.92;98267.06;4979567;28;19930;-57